createdAt,value
2022-11-25T00:03:04.105Z,87.92
2022-11-25T00:08:06.160Z,87.54
2022-11-25T00:13:07.877Z,88.00
2022-11-25T00:18:09.649Z,88.16
2022-11-25T00:23:11.668Z,87.67
2022-11-25T00:28:13.763Z,87.75
2022-11-25T00:33:15.455Z,87.89
2022-11-25T00:38:17.164Z,88.54
2022-11-25T00:43:37.240Z,88.65
2022-11-25T00:48:40.443Z,88.17
2022-11-25T00:53:42.150Z,88.74
2022-11-25T00:58:44.893Z,88.85
2022-11-25T01:03:50.069Z,88.83
2022-11-25T01:08:52.855Z,89.02
2022-11-25T01:14:00.963Z,89.22
2022-11-25T01:19:03.557Z,89.71
2022-11-25T01:24:06.512Z,90.18
2022-11-25T01:29:15.080Z,89.85
2022-11-25T01:34:21.061Z,89.87
2022-11-25T01:39:28.672Z,89.82
2022-11-25T01:44:36.506Z,89.62
2022-11-25T01:50:02.368Z,89.73
2022-11-25T01:55:10.914Z,90.35
2022-11-25T02:00:13.327Z,90.26
2022-11-25T02:05:33.899Z,90.22
2022-11-25T02:10:36.399Z,89.85
2022-11-25T02:15:38.154Z,89.61
2022-11-25T02:20:40.780Z,89.65
2022-11-25T02:25:43.508Z,89.08
2022-11-25T02:30:50.247Z,89.29
2022-11-25T02:36:15.632Z,88.74
2022-11-25T02:41:25.285Z,88.70
2022-11-25T02:46:33.380Z,88.58
2022-11-25T02:51:38.863Z,88.66
2022-11-25T02:56:41.505Z,88.79
2022-11-25T03:01:43.945Z,88.14
2022-11-25T03:06:45.733Z,87.50
2022-11-25T03:12:06.117Z,87.04
2022-11-25T03:17:07.864Z,86.83
2022-11-25T03:22:09.565Z,87.11
2022-11-25T03:27:11.301Z,87.68
2022-11-25T03:32:13.553Z,87.56
2022-11-25T03:37:16.300Z,87.06
2022-11-25T03:42:18.293Z,86.97
2022-11-25T03:47:20.207Z,86.97
2022-11-25T03:52:22.116Z,87.07
2022-11-25T03:57:24.830Z,87.19
2022-11-25T04:02:27.323Z,86.23
2022-11-25T04:07:29.778Z,86.11
2022-11-25T04:12:48.587Z,86.55
2022-11-25T04:17:54.511Z,86.02
2022-11-25T04:22:56.308Z,86.64
2022-11-25T04:27:58.309Z,86.58
2022-11-25T04:33:05.671Z,87.03
2022-11-25T04:38:08.072Z,86.76
2022-11-25T04:43:12.309Z,86.88
2022-11-25T04:48:38.827Z,87.27
2022-11-25T04:53:40.618Z,86.53
2022-11-25T04:59:03.001Z,86.71
2022-11-25T05:04:05.369Z,86.71
2022-11-25T05:09:10.831Z,86.68
2022-11-25T05:14:14.500Z,86.82
2022-11-25T05:19:16.622Z,86.34
2022-11-25T05:24:18.552Z,86.76
2022-11-25T05:29:21.670Z,86.70
2022-11-25T05:34:24.160Z,86.98
2022-11-25T05:39:27.898Z,86.78
2022-11-25T05:44:48.067Z,86.89
2022-11-25T05:49:49.843Z,86.83
2022-11-25T05:54:56.863Z,86.87
2022-11-25T05:59:59.224Z,86.54
2022-11-25T06:05:16.592Z,86.77
2022-11-25T06:10:19.884Z,86.99
2022-11-25T06:15:22.652Z,86.96
2022-11-25T06:20:27.243Z,87.08
2022-11-25T06:25:29.395Z,86.63
2022-11-25T06:30:31.765Z,86.08
2022-11-25T06:35:50.492Z,86.84
2022-11-25T06:40:54.132Z,87.07
2022-11-25T06:46:12.006Z,87.17
2022-11-25T06:51:16.054Z,88.38
2022-11-25T06:56:28.282Z,87.23
2022-11-25T07:01:30.945Z,87.24
2022-11-25T07:06:33.475Z,87.33
2022-11-25T07:11:38.024Z,87.27
2022-11-25T07:16:43.721Z,87.00
2022-11-25T07:21:46.789Z,87.44
2022-11-25T07:26:48.447Z,87.45
2022-11-25T07:31:50.727Z,87.52
2022-11-25T07:36:52.429Z,87.75
2022-11-25T07:41:54.517Z,88.05
2022-11-25T07:46:56.194Z,87.84
2022-11-25T07:52:02.868Z,87.82
2022-11-25T07:57:04.610Z,87.63
2022-11-25T08:02:06.332Z,87.79
2022-11-25T08:07:08.116Z,87.96
2022-11-25T08:12:09.879Z,87.84
2022-11-25T08:17:12.083Z,88.33
2022-11-25T08:22:13.868Z,88.58
2022-11-25T08:27:15.664Z,88.38
2022-11-25T08:32:17.368Z,88.61
2022-11-25T08:37:19.081Z,88.74
2022-11-25T08:42:20.956Z,88.72
2022-11-25T08:47:23.252Z,88.84
2022-11-25T08:52:24.919Z,88.78
2022-11-25T08:57:26.652Z,88.89
2022-11-25T09:02:28.503Z,89.14
2022-11-25T09:07:30.983Z,88.67
2022-11-25T09:12:32.897Z,89.04
2022-11-25T09:17:37.275Z,89.35
2022-11-25T09:22:39.060Z,89.45
2022-11-25T09:27:41.235Z,89.79
2022-11-25T09:32:43.135Z,89.96
2022-11-25T09:37:45.028Z,90.08
2022-11-25T09:43:12.954Z,90.28
2022-11-25T09:48:47.599Z,90.74
2022-11-25T09:53:54.624Z,91.72
2022-11-25T09:58:56.564Z,92.01
2022-11-25T10:04:05.701Z,91.77
2022-11-25T10:09:22.879Z,91.87
2022-11-25T10:14:46.341Z,92.31
2022-11-25T10:19:59.142Z,92.55
2022-11-25T10:25:14.157Z,92.59
2022-11-25T10:30:23.790Z,92.65
2022-11-25T10:35:35.571Z,93.01
2022-11-25T10:40:37.511Z,92.68
2022-11-25T10:45:49.101Z,92.16
2022-11-25T10:51:07.946Z,91.75
2022-11-25T10:56:17.105Z,91.47
2022-11-25T11:01:25.241Z,90.94
2022-11-25T11:06:31.075Z,90.19
2022-11-25T11:11:33.158Z,88.71
2022-11-25T11:16:41.938Z,86.90
2022-11-25T11:21:45.000Z,86.98
2022-11-25T11:27:00.586Z,86.19
2022-11-25T11:32:19.872Z,85.11
2022-11-25T11:37:42.766Z,83.56
2022-11-25T11:43:14.733Z,83.31
2022-11-25T11:48:26.250Z,82.00
2022-11-25T11:53:28.208Z,81.01
2022-11-25T11:58:32.811Z,80.81
2022-11-25T12:03:53.038Z,80.13
2022-11-25T12:09:22.738Z,78.93
2022-11-25T12:14:39.141Z,78.32
2022-11-25T12:19:50.136Z,77.77
2022-11-25T12:25:14.234Z,77.77
2022-11-25T12:30:18.348Z,76.17
2022-11-25T12:35:31.201Z,76.80
2022-11-25T12:40:45.040Z,77.24
2022-11-25T12:45:51.811Z,77.61
2022-11-25T12:51:16.597Z,78.20
2022-11-25T12:56:27.727Z,78.10
2022-11-25T13:01:47.878Z,78.37
2022-11-25T13:07:08.659Z,78.76
2022-11-25T13:12:38.846Z,79.38
2022-11-25T13:17:43.262Z,79.40
2022-11-25T13:23:20.256Z,79.86
2022-11-25T13:28:36.554Z,82.02
2022-11-25T13:33:44.823Z,83.43
2022-11-25T13:38:49.732Z,84.66
2022-11-25T13:44:01.802Z,85.09
2022-11-25T13:49:07.229Z,85.32
2022-11-25T13:54:18.278Z,85.28
2022-11-25T13:59:34.284Z,85.50
2022-11-25T14:05:03.567Z,86.33
2022-11-25T14:10:20.233Z,86.14
2022-11-25T14:15:32.410Z,86.14
2022-11-25T14:20:48.000Z,86.26
2022-11-25T14:25:55.505Z,86.27
2022-11-25T14:31:03.944Z,86.36
2022-11-25T14:36:11.647Z,86.29
2022-11-25T14:41:19.763Z,86.31
2022-11-25T14:46:25.390Z,86.25
2022-11-25T14:51:33.675Z,86.68
2022-11-25T14:56:36.947Z,86.92
2022-11-25T15:01:40.114Z,86.91
2022-11-25T15:06:49.242Z,87.21
2022-11-25T15:11:58.004Z,87.77
2022-11-25T15:17:01.262Z,88.28
2022-11-25T15:27:28.717Z,89.82
2022-11-25T15:32:37.458Z,90.35
2022-11-25T15:37:39.169Z,90.72
2022-11-25T15:42:42.315Z,91.24
2022-11-25T15:47:44.990Z,91.54
2022-11-25T15:52:51.493Z,91.71
2022-11-25T15:57:54.425Z,91.77
2022-11-25T16:02:58.064Z,92.40
2022-11-25T16:08:03.326Z,93.07
2022-11-25T16:13:29.953Z,93.99
2022-11-25T16:18:40.931Z,94.79
2022-11-25T16:24:05.809Z,95.55
2022-11-25T16:29:17.142Z,95.87
2022-11-25T16:34:20.916Z,96.50
2022-11-25T16:39:22.638Z,96.58
2022-11-25T16:44:26.269Z,96.53
2022-11-25T16:49:30.692Z,96.65
2022-11-25T16:54:33.810Z,96.77
2022-11-25T16:59:39.353Z,96.99
2022-11-25T17:04:41.397Z,97.42
2022-11-25T17:09:44.268Z,97.83
2022-11-25T17:14:47.696Z,98.38
2022-11-25T17:19:49.663Z,99.00
2022-11-25T17:24:51.757Z,99.15
2022-11-25T17:29:55.877Z,98.86
2022-11-25T17:34:57.749Z,98.55
2022-11-25T17:39:59.712Z,98.74
2022-11-25T17:45:01.618Z,98.74
2022-11-25T17:50:22.817Z,98.59
2022-11-25T17:55:24.548Z,98.59
2022-11-25T18:00:26.641Z,99.10
2022-11-25T18:05:29.053Z,99.01
2022-11-25T18:10:30.836Z,99.93
2022-11-25T18:15:34.060Z,99.76
2022-11-25T18:20:35.855Z,99.16
2022-11-25T18:25:39.957Z,99.15
2022-11-25T18:30:41.782Z,98.67
2022-11-25T18:35:45.888Z,98.74
2022-11-25T18:40:53.286Z,98.60
2022-11-25T18:45:55.891Z,98.58
2022-11-25T18:50:57.689Z,98.63
2022-11-25T18:55:59.650Z,98.23
2022-11-25T19:01:10.486Z,98.00
2022-11-25T19:06:15.214Z,98.15
2022-11-25T19:11:30.555Z,98.31
2022-11-25T19:16:32.320Z,98.77
2022-11-25T19:21:34.754Z,98.85
2022-11-25T19:26:42.097Z,98.79
2022-11-25T19:31:44.137Z,98.70
2022-11-25T19:36:45.974Z,98.53
2022-11-25T19:41:47.722Z,97.83
2022-11-25T19:47:14.253Z,97.80
2022-11-25T19:52:15.452Z,97.58
2022-11-25T19:57:22.310Z,97.36
2022-11-25T20:02:26.379Z,97.38
2022-11-25T20:07:30.041Z,97.29
2022-11-25T20:12:32.022Z,97.09
2022-11-25T20:17:36.528Z,97.35
2022-11-25T20:22:41.988Z,97.67
2022-11-25T20:27:43.832Z,97.87
2022-11-25T20:32:45.807Z,98.20
2022-11-25T20:37:53.749Z,98.29
2022-11-25T20:42:55.579Z,98.18
2022-11-25T20:47:58.966Z,98.30
2022-11-25T20:53:00.829Z,98.72
2022-11-25T20:58:09.441Z,99.02
2022-11-25T21:03:11.366Z,99.05
2022-11-25T21:08:19.705Z,99.22
2022-11-25T21:13:23.814Z,99.00
2022-11-25T21:18:25.544Z,98.77
2022-11-25T21:23:32.006Z,99.14
2022-11-25T21:28:38.466Z,99.00
2022-11-25T21:33:40.288Z,98.93
2022-11-25T21:38:43.953Z,98.90
2022-11-25T21:43:49.267Z,98.45
2022-11-25T21:48:50.985Z,98.20
2022-11-25T21:53:55.799Z,97.86
2022-11-25T21:59:03.081Z,97.96
2022-11-25T22:04:05.016Z,97.49
2022-11-25T22:09:06.807Z,97.37
2022-11-25T22:14:27.654Z,97.20
2022-11-25T22:19:29.552Z,96.81
2022-11-25T22:24:33.290Z,96.87
2022-11-25T22:29:36.420Z,96.67
2022-11-25T22:34:38.284Z,96.44
2022-11-25T22:39:40.164Z,96.56
2022-11-25T22:44:47.624Z,96.31
2022-11-25T22:49:50.305Z,96.22
2022-11-25T22:54:52.465Z,96.57
2022-11-25T22:59:54.115Z,96.45
2022-11-25T23:04:56.445Z,96.42
2022-11-25T23:09:58.294Z,96.32
2022-11-25T23:14:59.967Z,96.24
2022-11-25T23:20:02.021Z,96.25
2022-11-25T23:25:15.909Z,96.23
2022-11-25T23:30:22.960Z,96.22
2022-11-25T23:35:36.401Z,96.32
2022-11-25T23:40:38.874Z,96.19
2022-11-25T23:45:51.256Z,95.94
2022-11-25T23:50:55.405Z,95.80
2022-11-25T23:55:57.405Z,95.73
